sensor_id;sensor_type;location;lat;lon;timestamp;pressure;altitude;pressure_sealevel;temperature;humidity
76137;BME280;68622;53.128;17.966;2023-12-07T00:01:20;101661.36;;;0.14;67.83
76137;BME280;68622;53.128;17.966;2023-12-07T00:03:46;101664.35;;;-0.01;68.14
76137;BME280;68622;53.128;17.966;2023-12-07T00:06:12;101668.66;;;-0.02;68.24
76137;BME280;68622;53.128;17.966;2023-12-07T00:08:38;101664.08;;;0.02;68.09
76137;BME280;68622;53.128;17.966;2023-12-07T00:11:04;101666.26;;;0.04;68.29
76137;BME280;68622;53.128;17.966;2023-12-07T00:13:30;101667.22;;;0.07;68.22
76137;BME280;68622;53.128;17.966;2023-12-07T00:15:56;101667.52;;;0.08;68.35
76137;BME280;68622;53.128;17.966;2023-12-07T00:18:22;101666.02;;;0.06;68.10
76137;BME280;68622;53.128;17.966;2023-12-07T00:20:48;101668.07;;;0.07;68.15
76137;BME280;68622;53.128;17.966;2023-12-07T00:23:14;101670.60;;;0.08;68.11
76137;BME280;68622;53.128;17.966;2023-12-07T00:25:40;101674.23;;;0.05;68.05
76137;BME280;68622;53.128;17.966;2023-12-07T00:28:06;101671.80;;;0.07;67.89
76137;BME280;68622;53.128;17.966;2023-12-07T00:30:31;101670.85;;;0.10;68.10
76137;BME280;68622;53.128;17.966;2023-12-07T00:32:59;101673.50;;;0.13;68.02
76137;BME280;68622;53.128;17.966;2023-12-07T00:35:25;101673.20;;;0.11;68.29
76137;BME280;68622;53.128;17.966;2023-12-07T00:37:55;101675.24;;;0.11;68.22
76137;BME280;68622;53.128;17.966;2023-12-07T00:40:23;101677.27;;;0.13;68.10
76137;BME280;68622;53.128;17.966;2023-12-07T00:42:49;101680.50;;;0.13;68.01
76137;BME280;68622;53.128;17.966;2023-12-07T00:45:15;101678.63;;;0.12;67.98
76137;BME280;68622;53.128;17.966;2023-12-07T00:47:41;101680.52;;;0.12;68.13
76137;BME280;68622;53.128;17.966;2023-12-07T00:50:08;101680.98;;;0.14;67.93
76137;BME280;68622;53.128;17.966;2023-12-07T00:52:34;101681.17;;;0.13;67.98
76137;BME280;68622;53.128;17.966;2023-12-07T00:55:00;101686.42;;;0.14;67.92
76137;BME280;68622;53.128;17.966;2023-12-07T00:57:26;101686.58;;;0.15;67.94
76137;BME280;68622;53.128;17.966;2023-12-07T00:59:52;101687.41;;;0.16;67.93
76137;BME280;68622;53.128;17.966;2023-12-07T01:02:18;101686.19;;;0.16;68.06
76137;BME280;68622;53.128;17.966;2023-12-07T01:04:44;101689.08;;;0.17;68.10
76137;BME280;68622;53.128;17.966;2023-12-07T01:07:10;101694.98;;;0.19;68.06
76137;BME280;68622;53.128;17.966;2023-12-07T01:09:36;101696.30;;;0.20;68.02
76137;BME280;68622;53.128;17.966;2023-12-07T01:12:02;101697.88;;;0.19;67.88
76137;BME280;68622;53.128;17.966;2023-12-07T01:14:29;101703.41;;;0.17;67.84
76137;BME280;68622;53.128;17.966;2023-12-07T01:16:55;101702.50;;;0.13;67.93
76137;BME280;68622;53.128;17.966;2023-12-07T01:19:21;101705.31;;;0.10;67.94
76137;BME280;68622;53.128;17.966;2023-12-07T01:21:47;101701.34;;;0.06;67.90
76137;BME280;68622;53.128;17.966;2023-12-07T01:24:13;101704.23;;;0.06;67.94
76137;BME280;68622;53.128;17.966;2023-12-07T01:26:38;101704.90;;;0.07;67.95
76137;BME280;68622;53.128;17.966;2023-12-07T01:29:04;101711.39;;;0.06;67.94
76137;BME280;68622;53.128;17.966;2023-12-07T01:31:30;101709.20;;;0.11;68.06
76137;BME280;68622;53.128;17.966;2023-12-07T01:33:56;101706.88;;;0.15;68.06
76137;BME280;68622;53.128;17.966;2023-12-07T01:36:22;101710.42;;;0.16;68.14
76137;BME280;68622;53.128;17.966;2023-12-07T01:38:48;101706.88;;;0.15;68.08
76137;BME280;68622;53.128;17.966;2023-12-07T01:41:14;101707.98;;;0.18;68.12
76137;BME280;68622;53.128;17.966;2023-12-07T01:43:47;101706.59;;;0.18;68.13
76137;BME280;68622;53.128;17.966;2023-12-07T01:46:13;101707.30;;;0.12;68.14
76137;BME280;68622;53.128;17.966;2023-12-07T01:48:40;101708.66;;;0.13;68.22
76137;BME280;68622;53.128;17.966;2023-12-07T01:51:07;101709.48;;;0.13;68.19
76137;BME280;68622;53.128;17.966;2023-12-07T01:53:33;101708.45;;;0.14;68.06
76137;BME280;68622;53.128;17.966;2023-12-07T01:56:00;101712.48;;;0.16;67.89
76137;BME280;68622;53.128;17.966;2023-12-07T01:58:26;101713.09;;;0.18;67.97
76137;BME280;68622;53.128;17.966;2023-12-07T02:00:52;101710.89;;;0.17;67.83
76137;BME280;68622;53.128;17.966;2023-12-07T02:03:19;101714.05;;;0.20;67.99
76137;BME280;68622;53.128;17.966;2023-12-07T02:05:47;101709.54;;;0.23;68.05
76137;BME280;68622;53.128;17.966;2023-12-07T02:08:14;101714.05;;;0.26;68.13
76137;BME280;68622;53.128;17.966;2023-12-07T02:10:41;101713.61;;;0.30;68.16
76137;BME280;68622;53.128;17.966;2023-12-07T02:13:07;101710.80;;;0.32;68.11
76137;BME280;68622;53.128;17.966;2023-12-07T02:15:35;101707.17;;;0.34;67.87
76137;BME280;68622;53.128;17.966;2023-12-07T02:18:14;101707.31;;;0.34;67.95
76137;BME280;68622;53.128;17.966;2023-12-07T02:20:45;101705.16;;;0.32;67.79
76137;BME280;68622;53.128;17.966;2023-12-07T02:23:17;101701.64;;;0.30;67.75
76137;BME280;68622;53.128;17.966;2023-12-07T02:25:51;101703.40;;;0.28;67.73
76137;BME280;68622;53.128;17.966;2023-12-07T02:28:17;101710.11;;;0.26;67.64
76137;BME280;68622;53.128;17.966;2023-12-07T02:30:44;101710.47;;;0.26;67.66
76137;BME280;68622;53.128;17.966;2023-12-07T02:33:10;101714.84;;;0.29;67.75
76137;BME280;68622;53.128;17.966;2023-12-07T02:35:37;101713.22;;;0.31;67.81
76137;BME280;68622;53.128;17.966;2023-12-07T02:38:05;101717.45;;;0.32;67.87
76137;BME280;68622;53.128;17.966;2023-12-07T02:40:32;101722.91;;;0.33;67.84
76137;BME280;68622;53.128;17.966;2023-12-07T02:42:59;101718.16;;;0.32;67.92
76137;BME280;68622;53.128;17.966;2023-12-07T02:45:25;101718.48;;;0.32;67.93
76137;BME280;68622;53.128;17.966;2023-12-07T02:47:53;101718.82;;;0.33;67.85
76137;BME280;68622;53.128;17.966;2023-12-07T02:50:19;101720.38;;;0.32;67.77
76137;BME280;68622;53.128;17.966;2023-12-07T02:52:46;101719.70;;;0.31;67.79
76137;BME280;68622;53.128;17.966;2023-12-07T02:55:12;101718.75;;;0.28;67.69
76137;BME280;68622;53.128;17.966;2023-12-07T02:57:38;101724.39;;;0.34;67.60
76137;BME280;68622;53.128;17.966;2023-12-07T03:00:05;101726.20;;;0.36;67.57
76137;BME280;68622;53.128;17.966;2023-12-07T03:02:36;101728.40;;;0.37;67.90
76137;BME280;68622;53.128;17.966;2023-12-07T03:05:02;101726.16;;;0.37;67.93
76137;BME280;68622;53.128;17.966;2023-12-07T03:07:29;101728.00;;;0.39;67.91
76137;BME280;68622;53.128;17.966;2023-12-07T03:09:55;101728.66;;;0.40;67.98
76137;BME280;68622;53.128;17.966;2023-12-07T03:12:21;101728.58;;;0.37;67.70
76137;BME280;68622;53.128;17.966;2023-12-07T03:14:49;101733.33;;;0.32;67.67
76137;BME280;68622;53.128;17.966;2023-12-07T03:17:15;101732.48;;;0.26;67.62
76137;BME280;68622;53.128;17.966;2023-12-07T03:19:41;101730.17;;;0.23;67.73
76137;BME280;68622;53.128;17.966;2023-12-07T03:22:07;101725.61;;;0.22;67.85
76137;BME280;68622;53.128;17.966;2023-12-07T03:24:35;101723.20;;;0.23;67.73
76137;BME280;68622;53.128;17.966;2023-12-07T03:27:02;101722.88;;;0.22;67.85
76137;BME280;68622;53.128;17.966;2023-12-07T03:29:28;101722.77;;;0.20;67.89
76137;BME280;68622;53.128;17.966;2023-12-07T03:31:54;101722.95;;;0.14;67.95
76137;BME280;68622;53.128;17.966;2023-12-07T03:34:20;101722.30;;;0.12;67.97
76137;BME280;68622;53.128;17.966;2023-12-07T03:36:46;101722.27;;;0.08;68.00
76137;BME280;68622;53.128;17.966;2023-12-07T03:39:14;101722.39;;;0.03;67.96
76137;BME280;68622;53.128;17.966;2023-12-07T03:41:40;101722.23;;;-0.03;68.11
76137;BME280;68622;53.128;17.966;2023-12-07T03:44:06;101723.57;;;-0.09;68.06
76137;BME280;68622;53.128;17.966;2023-12-07T03:46:32;101726.59;;;-0.13;67.91
76137;BME280;68622;53.128;17.966;2023-12-07T03:48:58;101728.29;;;-0.12;67.84
76137;BME280;68622;53.128;17.966;2023-12-07T03:51:27;101734.89;;;-0.11;68.02
76137;BME280;68622;53.128;17.966;2023-12-07T03:53:56;101734.34;;;-0.09;67.94
76137;BME280;68622;53.128;17.966;2023-12-07T03:56:29;101733.46;;;-0.09;68.09
76137;BME280;68622;53.128;17.966;2023-12-07T03:58:56;101736.02;;;-0.09;68.27
76137;BME280;68622;53.128;17.966;2023-12-07T04:01:27;101741.17;;;-0.09;68.27
76137;BME280;68622;53.128;17.966;2023-12-07T04:03:54;101741.09;;;-0.13;68.19
76137;BME280;68622;53.128;17.966;2023-12-07T04:06:24;101746.77;;;-0.15;68.36
76137;BME280;68622;53.128;17.966;2023-12-07T04:08:50;101747.44;;;-0.21;68.46
76137;BME280;68622;53.128;17.966;2023-12-07T04:11:17;101746.30;;;-0.22;68.40
76137;BME280;68622;53.128;17.966;2023-12-07T04:13:43;101747.27;;;-0.21;68.43
76137;BME280;68622;53.128;17.966;2023-12-07T04:16:10;101750.77;;;-0.18;68.50
76137;BME280;68622;53.128;17.966;2023-12-07T04:18:37;101749.85;;;-0.16;68.57
76137;BME280;68622;53.128;17.966;2023-12-07T04:21:03;101756.31;;;-0.15;68.65
76137;BME280;68622;53.128;17.966;2023-12-07T04:23:29;101756.83;;;-0.15;68.57
76137;BME280;68622;53.128;17.966;2023-12-07T04:25:55;101760.59;;;-0.16;68.69
76137;BME280;68622;53.128;17.966;2023-12-07T04:28:21;101768.02;;;-0.18;68.63
76137;BME280;68622;53.128;17.966;2023-12-07T04:30:47;101768.37;;;-0.19;68.71
76137;BME280;68622;53.128;17.966;2023-12-07T04:33:13;101772.30;;;-0.19;68.59
76137;BME280;68622;53.128;17.966;2023-12-07T04:35:39;101776.30;;;-0.16;68.60
76137;BME280;68622;53.128;17.966;2023-12-07T04:38:04;101776.18;;;-0.12;68.69
76137;BME280;68622;53.128;17.966;2023-12-07T04:40:30;101772.30;;;-0.07;68.62
76137;BME280;68622;53.128;17.966;2023-12-07T04:42:56;101768.46;;;-0.04;68.74
76137;BME280;68622;53.128;17.966;2023-12-07T04:45:22;101771.30;;;-0.01;68.61
76137;BME280;68622;53.128;17.966;2023-12-07T04:47:48;101768.14;;;0.02;68.79
76137;BME280;68622;53.128;17.966;2023-12-07T04:50:14;101766.88;;;0.04;68.77
76137;BME280;68622;53.128;17.966;2023-12-07T04:52:40;101765.16;;;0.05;68.50
76137;BME280;68622;53.128;17.966;2023-12-07T04:55:06;101764.51;;;0.04;68.51
76137;BME280;68622;53.128;17.966;2023-12-07T04:57:34;101767.46;;;0.01;68.55
76137;BME280;68622;53.128;17.966;2023-12-07T05:00:01;101767.33;;;-0.00;68.64
76137;BME280;68622;53.128;17.966;2023-12-07T05:02:32;101765.63;;;-0.00;68.51
76137;BME280;68622;53.128;17.966;2023-12-07T05:04:58;101768.16;;;0.01;68.65
76137;BME280;68622;53.128;17.966;2023-12-07T05:07:24;101766.77;;;0.02;68.69
76137;BME280;68622;53.128;17.966;2023-12-07T05:09:50;101770.15;;;0.04;68.93
76137;BME280;68622;53.128;17.966;2023-12-07T05:12:17;101771.96;;;0.06;68.85
76137;BME280;68622;53.128;17.966;2023-12-07T05:14:43;101777.06;;;0.06;68.82
76137;BME280;68622;53.128;17.966;2023-12-07T05:17:09;101782.48;;;0.01;69.10
76137;BME280;68622;53.128;17.966;2023-12-07T05:19:35;101784.98;;;-0.02;69.33
76137;BME280;68622;53.128;17.966;2023-12-07T05:22:00;101784.63;;;-0.03;69.22
76137;BME280;68622;53.128;17.966;2023-12-07T05:24:27;101784.31;;;-0.03;69.26
76137;BME280;68622;53.128;17.966;2023-12-07T05:26:53;101780.98;;;-0.00;69.23
76137;BME280;68622;53.128;17.966;2023-12-07T05:29:19;101786.80;;;0.06;69.05
76137;BME280;68622;53.128;17.966;2023-12-07T05:31:48;101786.90;;;0.08;69.11
76137;BME280;68622;53.128;17.966;2023-12-07T05:34:14;101789.95;;;0.09;69.22
76137;BME280;68622;53.128;17.966;2023-12-07T05:36:40;101786.47;;;0.11;69.24
76137;BME280;68622;53.128;17.966;2023-12-07T05:39:06;101791.55;;;0.13;69.21
76137;BME280;68622;53.128;17.966;2023-12-07T05:41:33;101785.34;;;0.15;69.40
76137;BME280;68622;53.128;17.966;2023-12-07T05:43:59;101786.52;;;0.16;69.23
76137;BME280;68622;53.128;17.966;2023-12-07T05:46:25;101788.16;;;0.18;69.24
76137;BME280;68622;53.128;17.966;2023-12-07T05:48:51;101784.89;;;0.19;69.50
76137;BME280;68622;53.128;17.966;2023-12-07T05:51:17;101783.09;;;0.23;69.38
76137;BME280;68622;53.128;17.966;2023-12-07T05:53:44;101786.77;;;0.25;69.30
76137;BME280;68622;53.128;17.966;2023-12-07T05:56:10;101787.02;;;0.27;69.31
76137;BME280;68622;53.128;17.966;2023-12-07T05:58:37;101795.80;;;0.32;69.19
76137;BME280;68622;53.128;17.966;2023-12-07T06:01:03;101796.46;;;0.38;69.25
76137;BME280;68622;53.128;17.966;2023-12-07T06:03:29;101796.95;;;0.45;69.11
76137;BME280;68622;53.128;17.966;2023-12-07T06:05:55;101794.05;;;0.51;69.08
76137;BME280;68622;53.128;17.966;2023-12-07T06:08:22;101796.48;;;0.55;68.91
76137;BME280;68622;53.128;17.966;2023-12-07T06:10:48;101798.77;;;0.58;68.85
76137;BME280;68622;53.128;17.966;2023-12-07T06:13:14;101802.84;;;0.59;68.78
76137;BME280;68622;53.128;17.966;2023-12-07T06:15:40;101807.80;;;0.59;68.77
76137;BME280;68622;53.128;17.966;2023-12-07T06:18:06;101811.58;;;0.59;68.69
76137;BME280;68622;53.128;17.966;2023-12-07T06:20:33;101816.79;;;0.60;68.77
76137;BME280;68622;53.128;17.966;2023-12-07T06:23:00;101826.06;;;0.59;68.74
76137;BME280;68622;53.128;17.966;2023-12-07T06:25:27;101830.28;;;0.55;68.88
76137;BME280;68622;53.128;17.966;2023-12-07T06:27:53;101834.09;;;0.53;69.02
76137;BME280;68622;53.128;17.966;2023-12-07T06:30:19;101831.64;;;0.50;69.23
76137;BME280;68622;53.128;17.966;2023-12-07T06:32:46;101835.59;;;0.49;69.19
76137;BME280;68622;53.128;17.966;2023-12-07T06:35:12;101836.94;;;0.49;69.15
76137;BME280;68622;53.128;17.966;2023-12-07T06:37:38;101841.05;;;0.49;69.20
76137;BME280;68622;53.128;17.966;2023-12-07T06:40:08;101838.41;;;0.51;69.27
76137;BME280;68622;53.128;17.966;2023-12-07T06:42:35;101841.29;;;0.47;69.55
76137;BME280;68622;53.128;17.966;2023-12-07T06:45:02;101842.38;;;0.50;69.39
76137;BME280;68622;53.128;17.966;2023-12-07T06:47:28;101843.65;;;0.53;69.44
76137;BME280;68622;53.128;17.966;2023-12-07T06:49:55;101839.89;;;0.53;69.45
76137;BME280;68622;53.128;17.966;2023-12-07T06:52:24;101844.31;;;0.54;69.52
76137;BME280;68622;53.128;17.966;2023-12-07T06:54:50;101847.02;;;0.55;69.54
76137;BME280;68622;53.128;17.966;2023-12-07T06:57:16;101847.00;;;0.56;69.60
76137;BME280;68622;53.128;17.966;2023-12-07T06:59:42;101847.36;;;0.54;69.52
76137;BME280;68622;53.128;17.966;2023-12-07T07:02:08;101849.23;;;0.55;69.59
76137;BME280;68622;53.128;17.966;2023-12-07T07:04:34;101850.04;;;0.57;69.75
76137;BME280;68622;53.128;17.966;2023-12-07T07:07:00;101853.21;;;0.59;69.69
76137;BME280;68622;53.128;17.966;2023-12-07T07:09:26;101850.77;;;0.61;69.86
76137;BME280;68622;53.128;17.966;2023-12-07T07:11:52;101850.58;;;0.62;69.80
76137;BME280;68622;53.128;17.966;2023-12-07T07:14:19;101852.02;;;0.65;69.77
76137;BME280;68622;53.128;17.966;2023-12-07T07:16:45;101849.33;;;0.68;69.73
76137;BME280;68622;53.128;17.966;2023-12-07T07:19:11;101854.25;;;0.70;69.64
76137;BME280;68622;53.128;17.966;2023-12-07T07:21:37;101854.77;;;0.70;69.78
76137;BME280;68622;53.128;17.966;2023-12-07T07:24:03;101853.21;;;0.77;69.62
76137;BME280;68622;53.128;17.966;2023-12-07T07:26:29;101853.91;;;0.82;69.43
76137;BME280;68622;53.128;17.966;2023-12-07T07:28:54;101849.10;;;0.83;69.49
76137;BME280;68622;53.128;17.966;2023-12-07T07:31:21;101847.83;;;0.91;69.42
76137;BME280;68622;53.128;17.966;2023-12-07T07:33:47;101847.62;;;0.98;69.07
76137;BME280;68622;53.128;17.966;2023-12-07T07:36:13;101846.02;;;1.06;69.18
76137;BME280;68622;53.128;17.966;2023-12-07T07:38:41;101849.13;;;1.10;68.99
76137;BME280;68622;53.128;17.966;2023-12-07T07:41:08;101849.83;;;1.15;68.89
76137;BME280;68622;53.128;17.966;2023-12-07T07:43:33;101852.58;;;1.20;68.52
76137;BME280;68622;53.128;17.966;2023-12-07T07:46:03;101852.09;;;1.25;68.60
76137;BME280;68622;53.128;17.966;2023-12-07T07:48:30;101851.48;;;1.27;68.61
76137;BME280;68622;53.128;17.966;2023-12-07T07:50:56;101852.80;;;1.29;68.45
76137;BME280;68622;53.128;17.966;2023-12-07T07:53:23;101856.21;;;1.30;68.50
76137;BME280;68622;53.128;17.966;2023-12-07T07:55:49;101856.34;;;1.31;68.43
76137;BME280;68622;53.128;17.966;2023-12-07T07:58:15;101859.14;;;1.35;68.50
76137;BME280;68622;53.128;17.966;2023-12-07T08:00:41;101865.16;;;1.39;68.38
76137;BME280;68622;53.128;17.966;2023-12-07T08:03:07;101864.02;;;1.42;68.51
76137;BME280;68622;53.128;17.966;2023-12-07T08:05:33;101860.67;;;1.45;68.35
76137;BME280;68622;53.128;17.966;2023-12-07T08:07:59;101860.35;;;1.49;68.65
76137;BME280;68622;53.128;17.966;2023-12-07T08:10:25;101856.93;;;1.49;68.24
76137;BME280;68622;53.128;17.966;2023-12-07T08:12:51;101854.98;;;1.52;67.99
76137;BME280;68622;53.128;17.966;2023-12-07T08:15:17;101853.50;;;1.56;68.06
76137;BME280;68622;53.128;17.966;2023-12-07T08:17:43;101853.21;;;1.53;67.94
76137;BME280;68622;53.128;17.966;2023-12-07T08:20:09;101854.54;;;1.55;68.00
76137;BME280;68622;53.128;17.966;2023-12-07T08:22:40;101859.31;;;1.60;68.08
76137;BME280;68622;53.128;17.966;2023-12-07T08:25:11;101858.21;;;1.68;68.09
76137;BME280;68622;53.128;17.966;2023-12-07T08:27:38;101855.77;;;1.74;68.06
76137;BME280;68622;53.128;17.966;2023-12-07T08:30:04;101858.16;;;1.80;67.81
76137;BME280;68622;53.128;17.966;2023-12-07T08:32:30;101858.77;;;1.82;67.73
76137;BME280;68622;53.128;17.966;2023-12-07T08:34:56;101859.56;;;1.84;67.50
76137;BME280;68622;53.128;17.966;2023-12-07T08:37:22;101861.24;;;1.84;67.65
76137;BME280;68622;53.128;17.966;2023-12-07T08:39:48;101865.48;;;1.81;67.40
76137;BME280;68622;53.128;17.966;2023-12-07T08:42:14;101869.37;;;1.82;67.50
76137;BME280;68622;53.128;17.966;2023-12-07T08:44:43;101868.69;;;1.82;67.60
76137;BME280;68622;53.128;17.966;2023-12-07T08:47:09;101868.68;;;1.83;67.66
76137;BME280;68622;53.128;17.966;2023-12-07T08:49:35;101874.35;;;1.82;67.57
76137;BME280;68622;53.128;17.966;2023-12-07T08:52:02;101873.84;;;1.82;67.35
76137;BME280;68622;53.128;17.966;2023-12-07T08:54:28;101875.20;;;1.87;67.78
76137;BME280;68622;53.128;17.966;2023-12-07T08:56:55;101877.48;;;1.91;67.67
76137;BME280;68622;53.128;17.966;2023-12-07T08:59:21;101878.58;;;1.99;67.63
76137;BME280;68622;53.128;17.966;2023-12-07T09:01:47;101879.84;;;2.01;67.27
76137;BME280;68622;53.128;17.966;2023-12-07T09:04:13;101883.27;;;2.01;67.49
76137;BME280;68622;53.128;17.966;2023-12-07T09:06:39;101885.84;;;2.01;67.24
76137;BME280;68622;53.128;17.966;2023-12-07T09:09:05;101889.70;;;1.99;67.38
76137;BME280;68622;53.128;17.966;2023-12-07T09:11:31;101890.25;;;2.02;67.36
76137;BME280;68622;53.128;17.966;2023-12-07T09:13:57;101891.70;;;2.05;67.31
76137;BME280;68622;53.128;17.966;2023-12-07T09:16:24;101894.23;;;2.06;67.27
76137;BME280;68622;53.128;17.966;2023-12-07T09:18:52;101893.54;;;2.11;67.32
76137;BME280;68622;53.128;17.966;2023-12-07T09:21:18;101890.84;;;2.15;67.21
76137;BME280;68622;53.128;17.966;2023-12-07T09:23:45;101890.45;;;2.17;67.12
76137;BME280;68622;53.128;17.966;2023-12-07T09:26:11;101888.58;;;2.16;66.79
76137;BME280;68622;53.128;17.966;2023-12-07T09:28:36;101889.45;;;2.20;66.94
76137;BME280;68622;53.128;17.966;2023-12-07T09:31:05;101890.69;;;2.24;66.47
76137;BME280;68622;53.128;17.966;2023-12-07T09:33:31;101891.98;;;2.22;66.45
76137;BME280;68622;53.128;17.966;2023-12-07T09:35:57;101888.09;;;2.20;66.80
76137;BME280;68622;53.128;17.966;2023-12-07T09:38:23;101888.54;;;2.22;66.65
76137;BME280;68622;53.128;17.966;2023-12-07T09:40:53;101879.95;;;2.28;66.57
76137;BME280;68622;53.128;17.966;2023-12-07T09:43:19;101876.34;;;2.33;66.57
76137;BME280;68622;53.128;17.966;2023-12-07T09:45:47;101872.08;;;2.42;66.70
76137;BME280;68622;53.128;17.966;2023-12-07T09:48:13;101868.70;;;2.50;66.82
76137;BME280;68622;53.128;17.966;2023-12-07T09:50:39;101869.00;;;2.56;66.68
76137;BME280;68622;53.128;17.966;2023-12-07T09:53:07;101871.83;;;2.54;66.15
76137;BME280;68622;53.128;17.966;2023-12-07T09:55:33;101872.98;;;2.55;66.47
76137;BME280;68622;53.128;17.966;2023-12-07T09:57:59;101875.89;;;2.60;66.64
76137;BME280;68622;53.128;17.966;2023-12-07T10:00:25;101873.63;;;2.61;66.33
76137;BME280;68622;53.128;17.966;2023-12-07T10:02:51;101877.69;;;2.62;66.27
76137;BME280;68622;53.128;17.966;2023-12-07T10:05:17;101875.59;;;2.59;66.10
76137;BME280;68622;53.128;17.966;2023-12-07T10:07:45;101878.95;;;2.56;65.63
76137;BME280;68622;53.128;17.966;2023-12-07T10:10:14;101876.46;;;2.54;66.18
76137;BME280;68622;53.128;17.966;2023-12-07T10:12:56;101876.64;;;2.53;66.19
76137;BME280;68622;53.128;17.966;2023-12-07T10:15:23;101876.73;;;2.56;66.20
76137;BME280;68622;53.128;17.966;2023-12-07T10:17:52;101876.13;;;2.58;66.33
76137;BME280;68622;53.128;17.966;2023-12-07T10:20:20;101873.52;;;2.63;66.39
76137;BME280;68622;53.128;17.966;2023-12-07T10:23:12;101871.70;;;2.66;66.31
76137;BME280;68622;53.128;17.966;2023-12-07T10:25:41;101874.64;;;2.71;66.44
76137;BME280;68622;53.128;17.966;2023-12-07T10:28:07;101874.59;;;2.72;66.02
76137;BME280;68622;53.128;17.966;2023-12-07T10:30:34;101874.28;;;2.71;65.90
76137;BME280;68622;53.128;17.966;2023-12-07T10:33:03;101863.61;;;2.73;66.09
76137;BME280;68622;53.128;17.966;2023-12-07T10:35:31;101860.24;;;2.76;65.62
76137;BME280;68622;53.128;17.966;2023-12-07T10:37:57;101861.05;;;2.77;65.49
76137;BME280;68622;53.128;17.966;2023-12-07T10:40:23;101859.56;;;2.76;65.45
76137;BME280;68622;53.128;17.966;2023-12-07T10:42:52;101857.69;;;2.80;65.34
76137;BME280;68622;53.128;17.966;2023-12-07T10:45:21;101858.53;;;2.80;65.63
76137;BME280;68622;53.128;17.966;2023-12-07T10:47:51;101858.97;;;2.77;65.34
76137;BME280;68622;53.128;17.966;2023-12-07T10:50:23;101862.97;;;2.71;65.18
76137;BME280;68622;53.128;17.966;2023-12-07T10:52:52;101864.77;;;2.69;65.66
76137;BME280;68622;53.128;17.966;2023-12-07T10:55:24;101861.82;;;2.70;65.46
76137;BME280;68622;53.128;17.966;2023-12-07T10:57:55;101856.92;;;2.77;65.77
76137;BME280;68622;53.128;17.966;2023-12-07T11:00:22;101856.30;;;2.85;65.64
76137;BME280;68622;53.128;17.966;2023-12-07T11:02:53;101857.17;;;2.93;65.91
76137;BME280;68622;53.128;17.966;2023-12-07T11:05:20;101852.65;;;2.99;66.17
76137;BME280;68622;53.128;17.966;2023-12-07T11:07:59;101857.81;;;3.03;65.74
76137;BME280;68622;53.128;17.966;2023-12-07T11:10:39;101857.38;;;3.01;65.21
76137;BME280;68622;53.128;17.966;2023-12-07T11:13:32;101854.20;;;2.99;65.51
76137;BME280;68622;53.128;17.966;2023-12-07T11:16:00;101849.86;;;3.00;65.17
76137;BME280;68622;53.128;17.966;2023-12-07T11:18:27;101853.08;;;3.06;65.45
76137;BME280;68622;53.128;17.966;2023-12-07T11:20:57;101855.30;;;3.06;65.38
76137;BME280;68622;53.128;17.966;2023-12-07T11:23:23;101853.48;;;3.09;65.07
76137;BME280;68622;53.128;17.966;2023-12-07T11:25:51;101843.69;;;3.09;64.84
76137;BME280;68622;53.128;17.966;2023-12-07T11:28:18;101847.41;;;3.06;65.35
76137;BME280;68622;53.128;17.966;2023-12-07T11:30:45;101846.52;;;2.99;65.27
76137;BME280;68622;53.128;17.966;2023-12-07T11:33:12;101844.28;;;3.03;65.29
76137;BME280;68622;53.128;17.966;2023-12-07T11:38:28;101841.05;;;3.20;65.39
76137;BME280;68622;53.128;17.966;2023-12-07T11:40:55;101838.23;;;3.26;65.31
76137;BME280;68622;53.128;17.966;2023-12-07T11:46:04;101840.09;;;3.31;64.96
76137;BME280;68622;53.128;17.966;2023-12-07T11:48:30;101838.68;;;3.32;64.91
76137;BME280;68622;53.128;17.966;2023-12-07T11:51:08;101834.73;;;3.27;64.24
76137;BME280;68622;53.128;17.966;2023-12-07T11:53:37;101836.98;;;3.28;64.68
76137;BME280;68622;53.128;17.966;2023-12-07T11:56:06;101831.30;;;3.28;64.24
76137;BME280;68622;53.128;17.966;2023-12-07T11:58:34;101827.60;;;3.18;64.26
76137;BME280;68622;53.128;17.966;2023-12-07T12:01:01;101828.89;;;3.16;65.00
76137;BME280;68622;53.128;17.966;2023-12-07T12:03:28;101826.55;;;3.18;64.91
76137;BME280;68622;53.128;17.966;2023-12-07T12:05:55;101829.13;;;3.22;65.04
76137;BME280;68622;53.128;17.966;2023-12-07T12:08:22;101823.41;;;3.19;64.96
76137;BME280;68622;53.128;17.966;2023-12-07T12:10:50;101825.23;;;3.25;65.28
76137;BME280;68622;53.128;17.966;2023-12-07T12:13:18;101828.63;;;3.30;65.15
76137;BME280;68622;53.128;17.966;2023-12-07T12:15:44;101826.41;;;3.34;65.07
76137;BME280;68622;53.128;17.966;2023-12-07T12:18:12;101822.37;;;3.36;65.15
76137;BME280;68622;53.128;17.966;2023-12-07T12:20:39;101824.55;;;3.38;65.02
76137;BME280;68622;53.128;17.966;2023-12-07T12:23:05;101821.89;;;3.40;65.04
76137;BME280;68622;53.128;17.966;2023-12-07T12:25:31;101816.98;;;3.43;64.83
76137;BME280;68622;53.128;17.966;2023-12-07T12:28:02;101815.58;;;3.39;64.24
76137;BME280;68622;53.128;17.966;2023-12-07T12:30:29;101813.80;;;3.28;64.39
76137;BME280;68622;53.128;17.966;2023-12-07T12:32:56;101812.41;;;3.25;64.55
76137;BME280;68622;53.128;17.966;2023-12-07T12:35:23;101813.48;;;3.19;64.36
76137;BME280;68622;53.128;17.966;2023-12-07T12:37:49;101813.15;;;3.19;65.12
76137;BME280;68622;53.128;17.966;2023-12-07T12:40:21;101814.59;;;3.21;64.88
76137;BME280;68622;53.128;17.966;2023-12-07T12:42:51;101817.17;;;3.21;64.99
76137;BME280;68622;53.128;17.966;2023-12-07T12:45:18;101820.08;;;3.12;65.11
76137;BME280;68622;53.128;17.966;2023-12-07T12:47:46;101822.37;;;3.11;64.72
76137;BME280;68622;53.128;17.966;2023-12-07T12:50:33;101822.48;;;3.09;65.05
76137;BME280;68622;53.128;17.966;2023-12-07T12:52:59;101822.32;;;3.08;65.42